Airfield :
LOGIN :

Register | Disclaimer

   EN    FR    IT 

 










Legend :    VFR   Marginal VFR   IFR   Intensive IFR   Very Intensive IFR
Visi :
Ceiling :
>= 8 km
>= 3000ft
5 to 8 km
1000 to 3000 ft
1500m to 5 km
500 to 1000 ft
800 to 1500m
200 to 500 ft
< 800m
< 200 ft
Symbols :   Thunderstorms  Fog  Heavy snow  Heavy precipitations  Wind > 20 kt
SIGMETs :     Misc.  Thunderstorms  Icing  Turbulence  Mountain Waves  Volcanic Ashes







- Airport Elevation : 122 ft
- IATA code : TXL


EDDT - Berlin Tegel Int.

CURRENT METAR :
  • 241020Z 08005KT 050V120 7000 BKN010 15/14 Q1022 BECMG BKN015

EXPIRED METARs :
  • 240950Z 06005KT 030V110 7000 BKN008 15/14 Q1022 BECMG BKN010
  • 240920Z 07005KT 020V110 6000 BKN006 15/14 Q1022 NOSIG
  • 240850Z 07004KT 010V120 4700 -DZ BR BKN004 OVC005 15/14 Q1022 BECMG 5000 BR BKN005
  • 240820Z 05005KT 010V080 3000 -DZ BR OVC004 14/14 Q1021 BECMG 5000 BR BKN005
  • 240750Z 06005KT 010V100 2500 -DZ BR BKN003 OVC004 14/14 Q1021 BECMG 4000 BR BKN005

TAF TAF EDDT
Valid from the 24 at 06:00 until the 25 at 06:00 UTC


240500Z 2406/2506 35005KT 3500 -DZ OVC003
TEMPO 2406/2408 2000 DZ
PROB30
TEMPO 2406/2408 0500 FG OVC001
BECMG 2406/2408 05006KT
BECMG 2407/2410 9000 BKN009
BECMG 2411/2413 BKN020
TEMPO 2421/2502 BKN012
BECMG 2502/2504 4000 -RA BR BKN010
No reported NOTAMs for that airfield.



MET'MAP, your aeronautical weather chart ! - Copyright ORBIFLY December 2007 - Disclaimer

ORBIFLY MET'MAP TEAM :

Programming & Development : Alexandra Zaïnal
Concept & Development : Baudouin d'Aumeries
Co-Development & Prog : Marc-Olivier Méhu
Technical & hardware support : Manuel Goepfert

Contact : metmap@orbifly.com




SOURCES & CREDITS :

   NOAA